createdAt,value
2022-12-18T00:05:03.649Z,102564.59
2022-12-18T00:10:07.822Z,102560.91
2022-12-18T00:15:11.204Z,102568.72
2022-12-18T00:20:15.467Z,102572.28
2022-12-18T00:25:18.285Z,102576.00
2022-12-18T00:30:21.428Z,102585.28
2022-12-18T00:35:25.575Z,102599.19
2022-12-18T00:40:29.063Z,102597.88
2022-12-18T00:45:33.505Z,102590.69
2022-12-18T00:50:37.678Z,102579.19
2022-12-18T00:55:42.222Z,102589.84
2022-12-18T01:00:46.206Z,102586.00
2022-12-18T01:05:50.426Z,102600.25
2022-12-18T01:10:55.008Z,102610.34
2022-12-18T01:16:00.965Z,102590.97
2022-12-18T01:21:09.610Z,102599.22
2022-12-18T01:26:16.576Z,102590.25
2022-12-18T01:31:22.005Z,102596.94
2022-12-18T01:36:28.379Z,102593.91
2022-12-18T01:41:53.611Z,102599.16
2022-12-18T01:46:57.016Z,102599.72
2022-12-18T01:52:01.110Z,102610.66
2022-12-18T01:57:03.966Z,102614.97
2022-12-18T02:02:08.192Z,102614.31
2022-12-18T02:07:19.039Z,102615.00
2022-12-18T02:12:36.063Z,102615.38
2022-12-18T02:17:43.923Z,102613.38
2022-12-18T02:23:02.993Z,102630.25
2022-12-18T02:28:12.277Z,102630.88
2022-12-18T02:33:16.787Z,102626.56
2022-12-18T02:38:20.142Z,102628.81
2022-12-18T02:43:27.323Z,102617.81
2022-12-18T02:48:34.987Z,102632.91
2022-12-18T02:53:45.332Z,102627.06
2022-12-18T02:58:58.097Z,102644.75
2022-12-18T03:04:15.639Z,102641.84
2022-12-18T03:09:23.345Z,102634.47
2022-12-18T03:14:32.042Z,102639.59
2022-12-18T03:19:36.249Z,102645.13
2022-12-18T03:24:40.578Z,102648.22
2022-12-18T03:29:52.640Z,102642.81
2022-12-18T03:35:04.749Z,102648.69
2022-12-18T03:40:12.527Z,102647.63
2022-12-18T03:45:24.348Z,102643.25
2022-12-18T03:50:38.422Z,102644.31
2022-12-18T03:55:43.721Z,102649.19
2022-12-18T04:00:51.137Z,102647.38
2022-12-18T04:05:56.752Z,102639.28
2022-12-18T04:11:00.039Z,102641.78
2022-12-18T04:16:05.446Z,102654.53
2022-12-18T04:21:09.147Z,102646.34
2022-12-18T04:26:13.320Z,102645.66
2022-12-18T04:31:27.431Z,102651.25
2022-12-18T04:36:30.494Z,102638.91
2022-12-18T04:41:33.426Z,102627.31
2022-12-18T04:46:38.134Z,102629.34
2022-12-18T04:51:40.910Z,102631.63
2022-12-18T04:56:43.668Z,102639.69
2022-12-18T05:01:47.943Z,102638.94
2022-12-18T05:06:51.222Z,102654.53
2022-12-18T05:11:54.662Z,102663.94
2022-12-18T05:17:01.042Z,102674.81
2022-12-18T05:22:05.127Z,102668.06
2022-12-18T05:27:10.634Z,102674.63
2022-12-18T05:32:14.743Z,102672.44
2022-12-18T05:37:17.931Z,102681.97
2022-12-18T05:42:21.841Z,102695.78
2022-12-18T05:47:25.987Z,102691.16
2022-12-18T05:52:29.810Z,102695.28
2022-12-18T05:57:33.313Z,102688.81
2022-12-18T06:02:37.750Z,102688.31
2022-12-18T06:07:40.862Z,102688.34
2022-12-18T06:12:43.694Z,102696.03
2022-12-18T06:17:47.795Z,102700.78
2022-12-18T06:22:50.606Z,102694.19
2022-12-18T06:27:53.481Z,102699.06
2022-12-18T06:32:57.632Z,102703.84
2022-12-18T06:38:00.386Z,102715.94
2022-12-18T06:43:03.107Z,102715.75
2022-12-18T06:48:07.510Z,102712.34
2022-12-18T06:53:10.263Z,102716.47
2022-12-18T06:58:13.193Z,102715.13
2022-12-18T07:03:17.422Z,102706.19
2022-12-18T07:08:20.469Z,102722.91
2022-12-18T07:13:23.268Z,102728.00
2022-12-18T07:18:27.442Z,102731.63
2022-12-18T07:23:30.196Z,102731.63
2022-12-18T07:28:33.696Z,102739.13
2022-12-18T07:33:38.531Z,102732.44
2022-12-18T07:38:42.079Z,102735.81
2022-12-18T07:43:45.236Z,102748.75
2022-12-18T07:48:50.333Z,102747.00
2022-12-18T07:53:53.852Z,102751.19
2022-12-18T07:58:56.921Z,102756.78
2022-12-18T08:04:01.141Z,102751.41
2022-12-18T08:09:25.604Z,102743.78
2022-12-18T08:14:29.728Z,102747.63
2022-12-18T08:19:36.161Z,102740.41
2022-12-18T08:24:39.058Z,102738.53
2022-12-18T08:29:42.049Z,102739.97
2022-12-18T08:34:46.188Z,102738.06
2022-12-18T08:39:49.104Z,102732.91
2022-12-18T08:44:52.093Z,102738.22
2022-12-18T08:49:56.227Z,102740.56
2022-12-18T08:54:59.129Z,102748.78
2022-12-18T09:00:02.000Z,102746.94
2022-12-18T09:05:07.256Z,102741.66
2022-12-18T09:10:10.722Z,102750.81
2022-12-18T09:15:13.602Z,102742.00
2022-12-18T09:20:19.587Z,102735.53
2022-12-18T09:25:22.492Z,102735.38
2022-12-18T09:30:26.498Z,102746.94
2022-12-18T09:35:32.364Z,102747.13
2022-12-18T09:40:43.301Z,102732.78
2022-12-18T09:45:49.419Z,102747.75
2022-12-18T09:50:57.895Z,102746.31
2022-12-18T09:56:03.830Z,102732.75
2022-12-18T10:01:12.028Z,102746.38
2022-12-18T10:06:17.512Z,102745.94
2022-12-18T10:11:35.023Z,102747.59
2022-12-18T10:16:49.507Z,102749.25
2022-12-18T10:22:03.133Z,102749.50
2022-12-18T10:27:15.806Z,102749.94
2022-12-18T10:32:20.986Z,102761.50
2022-12-18T10:37:27.395Z,102760.06
2022-12-18T10:42:30.389Z,102749.78
2022-12-18T10:47:35.847Z,102746.34
2022-12-18T10:52:45.141Z,102750.03
2022-12-18T10:57:52.435Z,102728.38
2022-12-18T11:02:55.730Z,102730.19
2022-12-18T11:08:02.723Z,102724.88
2022-12-18T11:13:19.627Z,102718.91
2022-12-18T11:18:29.082Z,102725.13
2022-12-18T11:23:33.375Z,102734.38
2022-12-18T11:28:39.356Z,102720.53
2022-12-18T11:34:11.982Z,102713.16
2022-12-18T11:39:18.337Z,102708.28
2022-12-18T11:44:27.121Z,102705.31
2022-12-18T11:49:35.736Z,102700.69
2022-12-18T11:54:39.856Z,102700.69
2022-12-18T11:59:50.794Z,102680.41
2022-12-18T12:05:14.251Z,102674.19
2022-12-18T12:10:36.875Z,102653.22
2022-12-18T12:15:50.911Z,102669.13
2022-12-18T12:21:04.048Z,102666.56
2022-12-18T12:26:10.795Z,102646.94
2022-12-18T12:31:23.494Z,102630.31
2022-12-18T12:36:37.836Z,102615.06
2022-12-18T12:42:03.054Z,102604.00
2022-12-18T12:47:14.134Z,102597.09
2022-12-18T12:52:24.600Z,102596.56
2022-12-18T12:57:36.516Z,102594.25
2022-12-18T13:02:44.678Z,102590.81
2022-12-18T13:07:53.137Z,102587.78
2022-12-18T13:13:02.210Z,102586.13
2022-12-18T13:18:15.452Z,102593.91
2022-12-18T13:23:31.369Z,102585.94
2022-12-18T13:28:55.627Z,102593.78
2022-12-18T13:34:26.241Z,102584.00
2022-12-18T13:39:35.898Z,102576.41
2022-12-18T13:44:42.491Z,102569.75
2022-12-18T13:49:46.428Z,102581.31
2022-12-18T13:54:53.139Z,102598.81
2022-12-18T13:59:59.408Z,102576.69
2022-12-18T14:05:02.348Z,102573.47
2022-12-18T14:10:26.022Z,102576.69
2022-12-18T14:15:35.236Z,102578.53
2022-12-18T14:20:42.121Z,102580.81
2022-12-18T14:25:48.436Z,102556.19
2022-12-18T14:30:52.654Z,102558.44
2022-12-18T14:35:58.753Z,102560.75
2022-12-18T14:41:04.178Z,102578.00
2022-12-18T14:46:27.658Z,102566.25
2022-12-18T14:51:33.306Z,102563.72
2022-12-18T14:56:37.939Z,102559.13
2022-12-18T15:01:49.532Z,102536.78
2022-12-18T15:07:05.610Z,102524.78
2022-12-18T15:12:26.613Z,102522.94
2022-12-18T15:17:30.885Z,102522.25
2022-12-18T15:22:37.839Z,102513.47
2022-12-18T15:27:40.671Z,102508.41
2022-12-18T15:32:45.690Z,102510.94
2022-12-18T15:37:48.507Z,102502.44
2022-12-18T15:43:13.038Z,102484.75
2022-12-18T15:48:22.836Z,102472.34
2022-12-18T15:53:27.133Z,102456.25
2022-12-18T15:58:29.975Z,102452.56
2022-12-18T16:03:34.163Z,102463.38
2022-12-18T16:08:37.431Z,102450.72
2022-12-18T16:13:42.669Z,102455.31
2022-12-18T16:18:47.255Z,102438.28
2022-12-18T16:23:50.381Z,102428.16
2022-12-18T16:28:54.119Z,102425.41
2022-12-18T16:39:25.244Z,102422.13
2022-12-18T16:44:29.416Z,102423.31
2022-12-18T16:49:32.231Z,102413.41
2022-12-18T16:54:36.727Z,102424.44
2022-12-18T16:59:39.573Z,102418.94
2022-12-18T17:04:43.286Z,102422.16
2022-12-18T17:09:47.350Z,102410.88
2022-12-18T17:14:50.092Z,102395.03
2022-12-18T17:19:53.943Z,102385.13
2022-12-18T17:24:58.119Z,102388.78
2022-12-18T17:30:00.878Z,102389.72
2022-12-18T17:35:07.128Z,102392.94
2022-12-18T17:40:13.109Z,102393.16
2022-12-18T17:45:15.877Z,102374.78
2022-12-18T17:50:18.735Z,102357.72
2022-12-18T17:55:22.993Z,102347.63
2022-12-18T18:00:25.828Z,102333.59
2022-12-18T18:05:28.661Z,102322.97
2022-12-18T18:10:33.797Z,102304.09
2022-12-18T18:15:41.067Z,102311.00
2022-12-18T18:20:43.827Z,102301.09
2022-12-18T18:25:48.967Z,102301.13
2022-12-18T18:30:52.537Z,102292.13
2022-12-18T18:35:55.315Z,102283.59
2022-12-18T18:41:04.002Z,102291.16
2022-12-18T18:46:07.574Z,102269.53
2022-12-18T18:51:15.574Z,102257.13
2022-12-18T19:01:52.535Z,102228.38
2022-12-18T19:06:55.838Z,102218.19
2022-12-18T19:12:17.252Z,102220.53
2022-12-18T19:17:23.691Z,102195.16
2022-12-18T19:22:30.825Z,102212.44
2022-12-18T19:27:38.463Z,102208.31
2022-12-18T19:32:42.279Z,102197.19
2022-12-18T19:37:45.142Z,102183.13
2022-12-18T19:42:49.459Z,102161.72
2022-12-18T19:47:52.226Z,102164.78
2022-12-18T19:52:54.978Z,102162.97
2022-12-18T19:57:59.546Z,102157.75
2022-12-18T20:03:12.869Z,102158.94
2022-12-18T20:08:21.240Z,102147.47
2022-12-18T20:13:25.393Z,102132.91
2022-12-18T20:18:30.625Z,102125.31
2022-12-18T20:23:34.542Z,102112.59
2022-12-18T20:28:41.333Z,102108.53
2022-12-18T20:33:47.539Z,102107.66
2022-12-18T20:38:54.714Z,102098.34
2022-12-18T20:44:03.692Z,102096.56
2022-12-18T20:49:08.682Z,102095.81
2022-12-18T20:54:16.328Z,102084.72
2022-12-18T20:59:25.462Z,102044.91
2022-12-18T21:04:28.345Z,102035.91
2022-12-18T21:09:37.269Z,102034.31
2022-12-18T21:14:43.251Z,102029.94
2022-12-18T21:19:46.016Z,102048.91
2022-12-18T21:24:49.306Z,102111.19
2022-12-18T21:29:53.494Z,102121.69
2022-12-18T21:35:02.223Z,102143.72
2022-12-18T21:40:06.406Z,102122.84
2022-12-18T21:45:12.129Z,102094.59
2022-12-18T21:50:14.984Z,102091.44
2022-12-18T21:55:17.973Z,102091.63
2022-12-18T22:00:22.884Z,102087.88
2022-12-18T22:05:25.809Z,102080.88
2022-12-18T22:10:28.626Z,102076.94
2022-12-18T22:15:32.996Z,102061.69
2022-12-18T22:20:35.793Z,102046.06
2022-12-18T22:25:39.951Z,102042.91
2022-12-18T22:30:44.491Z,102030.44
2022-12-18T22:35:47.263Z,102025.38
2022-12-18T22:40:51.037Z,102027.25
2022-12-18T22:45:55.323Z,102018.03
2022-12-18T22:50:59.490Z,102004.38
2022-12-18T22:56:02.662Z,101984.81
2022-12-18T23:01:09.655Z,101984.16
2022-12-18T23:06:12.755Z,101965.50
2022-12-18T23:11:17.492Z,101952.59
2022-12-18T23:16:23.084Z,101936.19
2022-12-18T23:21:26.091Z,101928.59
2022-12-18T23:26:30.355Z,101931.81
2022-12-18T23:31:36.824Z,101920.00
2022-12-18T23:36:45.731Z,101922.66
2022-12-18T23:41:53.947Z,101916.66
2022-12-18T23:47:03.475Z,101920.59
2022-12-18T23:52:06.453Z,101908.03
2022-12-18T23:57:09.455Z,101901.81
